Ana Sayfa
METAR-TAF:

METAR-TAF

Havaalanları :

Hatay Havalimanı

Antakya, Türkiye

Enlem: 36-21-46N, Boylam: 36-16-56E, yükseklik: 1950 m

Güncel hava durumu gözlemi

Rapor saat 07:50 UTC de 55 dakika önce yapıldı.
Rüzgar kuzeydan 6 kt, kuzeybatı ve kuzeydoğu arasında değişken
Sıcaklık 13°C
Nem 94%
Basınç 1021 hPa
Görüş mesafesi 10 km veya daha fazla
3000 ft yükseklikte parçalı çok bulutlu
10000 ft yükseklikte parçalı çok bulutlu

METAR: LTDA 230750Z 35006KT 320V040 9999 BKN030 BKN100 13/12 Q1021 NOSIG

Saat: 11:45 (08:45 UTC)

Tahmin

Rapor saat 07:40 UTC de 1 saat ve 5 dakika önce yapıldı.
Ayın 23'si saat 09 UTC'den ayın 23'si saat 18 UTC'ye kadar geçerli Tahmin
Rüzgar değişken yönden 2 kt
Görüş mesafesi 10 km veya daha fazla
3000 ft yükseklikte parçalı çok bulutlu
10000 ft yükseklikte parçalı çok bulutlu

TAF: LTDA 230740Z 2309/2318 VRB02KT 9999 BKN030 BKN100

4.000'den fazla havaalanı için hava durumu gözlemleri ve tahminleri (METAR ve TAF raporları).

Kullanılabilir istasyonlar harita üzerinde sarı ve kırmızı noktalarla gösterilir.

İstasyonun adını görmek için fareyi noktanın üzerinde gezdirin.

Sonrasında hava gözlem ve tahminlerini görmek için tıklayın.

Haritayı değiştirmek için: yaklaştırmak için siyah artı işaretli yeşil düğmeye ve uzaklaştırmak için de eksi işaretli düğmeye hızla tıklayın; bitişik haritalar için yeşil okları kullanın.


METAR-TAF: